SBI5342 UNOO-UNNT
Flight info
| Callsign | SBI5342 |
|---|---|
| Flight time | N/A |
| Altitude | 33000 |
| Route | RUMOD A844 BIKMI R234 ABESA B944 GOLIM |
| Aircraft | E170/M-SDE2E3FGHIRWXY/LB1 |
Departure
| Time | 2026-05-07 08:56 |
|---|---|
| Airport | Omsk Central Airport (UNOO) |
Arrival
| Time | N/A |
|---|---|
| Airport | Novosibirsk Tolmachevo Airport (UNNT) |
| Time | Latitude | Longitude | Altitude | Speed | Heading |
|---|---|---|---|---|---|
| 2026-05-07 08:23 | 54.96355 | 73.32046 | 305 ft | 0 kts | 137° |
| 2026-05-07 08:51 | 54.96347 | 73.32059 | 305 ft | 3 kts | 137° |
| 2026-05-07 08:51 | 54.96321 | 73.32121 | 305 ft | 9 kts | 95° |
| 2026-05-07 08:51 | 54.96375 | 73.32221 | 304 ft | 11 kts | 28° |
| 2026-05-07 08:51 | 54.96454 | 73.32251 | 304 ft | 12 kts | 39° |
| 2026-05-07 08:52 | 54.96485 | 73.32395 | 303 ft | 13 kts | 78° |
| 2026-05-07 08:52 | 54.96506 | 73.32553 | 306 ft | 14 kts | 79° |
| 2026-05-07 08:52 | 54.96529 | 73.32732 | 302 ft | 17 kts | 76° |
| 2026-05-07 08:52 | 54.96556 | 73.32932 | 302 ft | 9 kts | 78° |
| 2026-05-07 08:53 | 54.96562 | 73.32974 | 302 ft | 9 kts | 75° |
| 2026-05-07 08:53 | 54.96619 | 73.33048 | 302 ft | 12 kts | 358° |
| 2026-05-07 08:53 | 54.96703 | 73.33023 | 301 ft | 13 kts | 349° |
| 2026-05-07 08:53 | 54.96789 | 73.32982 | 301 ft | 14 kts | 343° |
| 2026-05-07 08:54 | 54.96889 | 73.32938 | 300 ft | 16 kts | 347° |
| 2026-05-07 08:54 | 54.96933 | 73.32921 | 300 ft | 2 kts | 340° |
| 2026-05-07 08:54 | 54.96958 | 73.32888 | 300 ft | 5 kts | 298° |
| 2026-05-07 08:54 | 54.96958 | 73.32860 | 300 ft | 4 kts | 257° |
| 2026-05-07 08:55 | 54.96957 | 73.32854 | 300 ft | 1 kts | 258° |
| 2026-05-07 08:55 | 54.96904 | 73.32459 | 304 ft | 73 kts | 255° |
| 2026-05-07 08:55 | 54.96730 | 73.31162 | 307 ft | 146 kts | 257° |
| 2026-05-07 08:55 | 54.96498 | 73.29228 | 882 ft | 170 kts | 253° |
| 2026-05-07 08:56 | 54.96226 | 73.27149 | 1757 ft | 184 kts | 251° |
| 2026-05-07 08:56 | 54.95908 | 73.24965 | 2723 ft | 186 kts | 250° |
| 2026-05-07 08:56 | 54.95574 | 73.22792 | 3760 ft | 184 kts | 250° |
| 2026-05-07 08:56 | 54.95254 | 73.20474 | 4325 ft | 216 kts | 253° |
| 2026-05-07 08:57 | 54.94900 | 73.17769 | 4992 ft | 239 kts | 253° |
| 2026-05-07 08:57 | 54.94519 | 73.14867 | 5894 ft | 250 kts | 254° |
| 2026-05-07 08:57 | 54.94127 | 73.11923 | 6987 ft | 250 kts | 256° |
| 2026-05-07 08:57 | 54.93735 | 73.08971 | 7998 ft | 250 kts | 256° |
| 2026-05-07 08:58 | 54.93241 | 73.05116 | 9219 ft | 254 kts | 261° |
| 2026-05-07 08:58 | 54.93359 | 73.01982 | 9891 ft | 268 kts | 287° |
| 2026-05-07 08:58 | 54.94295 | 72.99070 | 10413 ft | 289 kts | 309° |
| 2026-05-07 08:58 | 54.95945 | 72.96906 | 10970 ft | 312 kts | 332° |
| 2026-05-07 08:59 | 54.98160 | 72.96193 | 11396 ft | 341 kts | 0° |
| 2026-05-07 08:59 | 54.99728 | 72.96814 | 11844 ft | 356 kts | 20° |
| 2026-05-07 08:59 | 55.01810 | 72.99234 | 13045 ft | 367 kts | 40° |
| 2026-05-07 08:59 | 55.03637 | 73.02320 | 14394 ft | 359 kts | 40° |
| 2026-05-07 09:00 | 55.05661 | 73.04820 | 15420 ft | 363 kts | 24° |
| 2026-05-07 09:00 | 55.07911 | 73.06867 | 16169 ft | 371 kts | 30° |
| 2026-05-07 09:00 | 55.09787 | 73.10135 | 16630 ft | 393 kts | 56° |
| 2026-05-07 09:00 | 55.10766 | 73.14609 | 17401 ft | 400 kts | 79° |
| 2026-05-07 09:01 | 55.11136 | 73.19460 | 18177 ft | 405 kts | 84° |
| 2026-05-07 09:01 | 55.11422 | 73.24397 | 18840 ft | 411 kts | 83° |
| 2026-05-07 09:01 | 55.11908 | 73.29284 | 19522 ft | 416 kts | 77° |
| 2026-05-07 09:01 | 55.12675 | 73.34205 | 20217 ft | 421 kts | 72° |
| 2026-05-07 09:02 | 55.13590 | 73.39094 | 20875 ft | 426 kts | 70° |
| 2026-05-07 09:02 | 55.14586 | 73.44009 | 21467 ft | 431 kts | 67° |
| 2026-05-07 09:02 | 55.15852 | 73.48772 | 21988 ft | 435 kts | 58° |
| 2026-05-07 09:02 | 55.17588 | 73.53119 | 22544 ft | 437 kts | 49° |
| 2026-05-07 09:03 | 55.19521 | 73.57247 | 23104 ft | 441 kts | 47° |
| 2026-05-07 09:03 | 55.21488 | 73.61416 | 23637 ft | 446 kts | 48° |
| 2026-05-07 09:03 | 55.23461 | 73.65631 | 24138 ft | 450 kts | 48° |
| 2026-05-07 09:03 | 55.25447 | 73.69893 | 24657 ft | 453 kts | 48° |
| 2026-05-07 09:04 | 55.27446 | 73.74197 | 25162 ft | 457 kts | 48° |
| 2026-05-07 09:04 | 55.29463 | 73.78544 | 25675 ft | 460 kts | 48° |
| 2026-05-07 09:04 | 55.31707 | 73.82532 | 26128 ft | 460 kts | 39° |
| 2026-05-07 09:04 | 55.33979 | 73.85882 | 26595 ft | 461 kts | 34° |
| 2026-05-07 09:05 | 55.35834 | 73.88305 | 26959 ft | 461 kts | 31° |
| 2026-05-07 09:05 | 55.38513 | 73.91419 | 27464 ft | 460 kts | 28° |
| 2026-05-07 09:05 | 55.41294 | 73.94214 | 27976 ft | 460 kts | 23° |
| 2026-05-07 09:05 | 55.44175 | 73.96645 | 28473 ft | 459 kts | 19° |
| 2026-05-07 09:06 | 55.47147 | 73.98704 | 28982 ft | 458 kts | 14° |
| 2026-05-07 09:06 | 55.50151 | 74.00595 | 29472 ft | 460 kts | 18° |
| 2026-05-07 09:06 | 55.53125 | 74.02699 | 29977 ft | 460 kts | 15° |
| 2026-05-07 09:06 | 55.56164 | 74.04442 | 30399 ft | 458 kts | 10° |
| 2026-05-07 09:07 | 55.57626 | 74.05127 | 30596 ft | 457 kts | 8° |
| 2026-05-07 09:07 | 55.60040 | 74.06402 | 30893 ft | 463 kts | 17° |